To NAV CANADA Home Page Login to a new session Search on AWWS site Feedback and Comments Disclaimer Vers la page française équivalente Tips FAQ What's new on the site To the Forecasts and Observations / NOTAM section To "File a Flight Plan" website Publications and other links Update of the User's profile FIC Telephone Numbers My Weather Data Folder Route Weather Data Regional Weather Data Local Weather Data To the Forecasts and Observations / NOTAM section
Request Generated 03/23/2017 at 00:14:25 UTC . Weather information available at that time is displayed.

METAR/TAF

STONY RAPIDS/SK    (show WxCam)

METAR CYSF 230000Z AUTO 11007KT 9SM OVC055 M03/M14 A2983 RMK SLP125=
METAR CYSF 222300Z AUTO 13007KT 9SM OVC055 M03/M15 A2983 RMK SLP128=
METAR CYSF 222200Z AUTO 08006KT 070V160 9SM OVC065 M03/M13 A2986 RMK
SLP137=

TAF CYSF 222341Z 2300/2312 11005KT P6SM BKN060 TEMPO 2300/2312 5SM
-SN
RMK FCST BASED ON AUTO OBS. NXT FCST BY 230600Z=
Your time UTC time
Weather data provided by Environment Canada and NAV CANADA